Time;durP1;ratioP1;P1;durP2;ratioP2;P2;SDS_P1;SDS_P2;PMS_P1;PMS_P2;Temp;Humidity;BMP_temperature;BMP_pressure;BME280_temperature;BME280_humidity;BME280_pressure;Samples;Min_cycle;Max_cycle;Signal;HPM_P1;HPM_P2
2024/03/14 00:00:08;;;;;;;24.27;17.48;;;;;;;;;;4919710;29;20024;-92
2024/03/14 00:02:35;;;;;;;27.90;17.35;;;;;;;;;;4919662;29;20091;-93
2024/03/14 00:05:01;;;;;;;25.80;17.38;;;;;;;;;;4919736;29;20032;-93
2024/03/14 00:07:27;;;;;;;28.05;21.15;;;;;;;;;;4919978;29;20107;-93
2024/03/14 00:09:53;;;;;;;24.23;17.55;;;;;;;;;;4919762;29;20031;-92
2024/03/14 00:12:20;;;;;;;26.73;18.27;;;;;;;;;;4919673;29;20099;-92
2024/03/14 00:14:50;;;;;;;23.17;16.58;;;;;;;;;;4920558;29;20035;-93
2024/03/14 00:17:19;;;;;;;23.75;16.65;;;;;;;;;;4923150;29;20039;-93
2024/03/14 00:19:49;;;;;;;24.95;17.48;;;;;;;;;;4922991;29;20027;-93
2024/03/14 00:22:17;;;;;;;23.08;17.45;;;;;;;;;;4923087;29;20028;-92
2024/03/14 00:24:43;;;;;;;24.27;16.77;;;;;;;;;;4922828;29;20062;-92
2024/03/14 00:27:09;;;;;;;25.65;17.35;;;;;;;;;;4923070;29;20023;-92
2024/03/14 00:29:36;;;;;;;23.13;16.65;;;;;;;;;;4923157;29;20370;-92
2024/03/14 00:32:02;;;;;;;25.25;18.33;;;;;;;;;;4928001;29;20012;-93
2024/03/14 00:34:29;;;;;;;25.70;17.55;;;;;;;;;;4930787;29;20047;-92
2024/03/14 00:36:56;;;;;;;26.45;17.55;;;;;;;;;;4938485;29;20074;-92
2024/03/14 00:39:22;;;;;;;23.30;16.58;;;;;;;;;;4923647;29;20028;-93
2024/03/14 00:41:51;;;;;;;22.35;16.17;;;;;;;;;;4924238;29;20087;-92
2024/03/14 00:44:17;;;;;;;38.13;24.88;;;;;;;;;;4922962;29;20023;-92
2024/03/14 00:46:44;;;;;;;31.55;21.48;;;;;;;;;;4934973;29;20035;-91
2024/03/14 00:49:10;;;;;;;35.78;23.30;;;;;;;;;;4924000;29;20031;-92
2024/03/14 00:51:36;;;;;;;35.95;22.35;;;;;;;;;;4922879;29;20028;-92
2024/03/14 00:54:05;;;;;;;31.00;21.17;;;;;;;;;;4922307;29;20071;-92
2024/03/14 00:56:31;;;;;;;31.83;21.20;;;;;;;;;;4922696;29;20035;-93
2024/03/14 00:58:58;;;;;;;27.63;19.55;;;;;;;;;;4922831;29;20028;-92
2024/03/14 01:01:25;;;;;;;29.10;18.98;;;;;;;;;;4922463;29;20075;-92
2024/03/14 01:03:54;;;;;;;31.65;20.20;;;;;;;;;;4922274;29;20424;-92
2024/03/14 01:06:21;;;;;;;33.53;20.77;;;;;;;;;;4922278;29;20107;-92
2024/03/14 01:08:48;;;;;;;31.15;19.20;;;;;;;;;;4922511;29;20023;-92
2024/03/14 01:11:18;;;;;;;28.73;19.23;;;;;;;;;;4922509;29;20028;-92
2024/03/14 01:13:44;;;;;;;28.63;20.98;;;;;;;;;;4922222;29;20032;-91
2024/03/14 01:16:11;;;;;;;29.95;20.30;;;;;;;;;;4922192;29;20036;-92
2024/03/14 01:18:39;;;;;;;25.48;17.77;;;;;;;;;;4922132;29;20400;-92
2024/03/14 01:21:09;;;;;;;26.42;17.52;;;;;;;;;;4922102;29;20035;-92
2024/03/14 01:23:37;;;;;;;27.17;18.73;;;;;;;;;;4922088;29;20122;-92
2024/03/14 01:26:03;;;;;;;26.48;16.83;;;;;;;;;;4921398;29;20024;-92
2024/03/14 01:28:30;;;;;;;24.90;17.95;;;;;;;;;;4921768;29;20084;-92
2024/03/14 01:30:58;;;;;;;27.70;17.63;;;;;;;;;;4922072;29;20028;-92
2024/03/14 01:33:25;;;;;;;24.58;17.42;;;;;;;;;;4921591;29;20044;-92
2024/03/14 01:35:54;;;;;;;26.75;19.05;;;;;;;;;;4921717;29;20106;-92
2024/03/14 01:38:23;;;;;;;26.33;18.70;;;;;;;;;;4921378;29;20094;-92
2024/03/14 01:40:49;;;;;;;31.75;20.35;;;;;;;;;;4921817;29;20028;-92
2024/03/14 01:43:16;;;;;;;36.20;20.42;;;;;;;;;;4921897;29;20024;-93
2024/03/14 01:45:42;;;;;;;80.35;36.03;;;;;;;;;;4921934;29;20050;-92
2024/03/14 01:48:10;;;;;;;118.95;48.85;;;;;;;;;;4921860;29;20055;-92
2024/03/14 01:50:36;;;;;;;55.58;31.02;;;;;;;;;;4921501;29;20108;-92
2024/03/14 01:53:02;;;;;;;39.85;22.60;;;;;;;;;;4921577;29;20485;-92
2024/03/14 01:55:28;;;;;;;43.35;24.55;;;;;;;;;;4921402;29;20039;-92
2024/03/14 01:57:54;;;;;;;44.25;26.30;;;;;;;;;;4921518;29;20031;-93
2024/03/14 02:00:29;;;;;;;38.17;22.05;;;;;;;;;;4922651;29;20032;-93
2024/03/14 02:02:56;;;;;;;34.15;22.58;;;;;;;;;;4921499;29;20035;-92
2024/03/14 02:05:37;;;;;;;32.50;22.27;;;;;;;;;;4921485;29;20042;-92
2024/03/14 02:08:04;;;;;;;33.70;22.05;;;;;;;;;;4921311;29;20036;-93
2024/03/14 02:10:30;;;;;;;33.17;22.52;;;;;;;;;;4921421;29;20054;-92
2024/03/14 02:12:57;;;;;;;28.80;18.70;;;;;;;;;;4921516;29;20032;-92
2024/03/14 02:15:25;;;;;;;29.30;21.10;;;;;;;;;;4924824;29;20107;-91
2024/03/14 02:17:51;;;;;;;30.25;20.40;;;;;;;;;;4928329;29;20485;-91
2024/03/14 02:20:18;;;;;;;35.05;22.73;;;;;;;;;;4944680;29;20059;-93
2024/03/14 02:22:44;;;;;;;35.88;22.45;;;;;;;;;;4937786;29;20121;-92
2024/03/14 02:25:10;;;;;;;34.00;27.85;;;;;;;;;;4905263;29;20404;-92
2024/03/14 02:27:37;;;;;;;38.88;25.55;;;;;;;;;;4921359;29;20107;-92
2024/03/14 02:30:05;;;;;;;35.17;25.67;;;;;;;;;;4920903;29;20049;-92
2024/03/14 02:32:31;;;;;;;23.85;16.25;;;;;;;;;;4920652;29;20067;-94
2024/03/14 02:34:57;;;;;;;35.70;32.05;;;;;;;;;;4920836;29;20042;-93
2024/03/14 02:37:23;;;;;;;32.88;29.52;;;;;;;;;;4920655;29;20079;-94
2024/03/14 02:39:50;;;;;;;27.30;17.67;;;;;;;;;;4937949;29;20027;-93
2024/03/14 02:42:18;;;;;;;31.48;22.77;;;;;;;;;;4921412;29;20438;-92
2024/03/14 02:44:45;;;;;;;26.00;16.70;;;;;;;;;;4923152;29;20067;-93
2024/03/14 02:47:12;;;;;;;24.75;16.60;;;;;;;;;;4921336;29;20031;-94
2024/03/14 02:49:38;;;;;;;26.73;17.35;;;;;;;;;;4943835;29;20020;-94
2024/03/14 02:52:05;;;;;;;26.95;16.08;;;;;;;;;;4938764;29;20543;-93
2024/03/14 02:54:32;;;;;;;24.88;16.13;;;;;;;;;;4921842;29;20043;-94
2024/03/14 02:56:58;;;;;;;34.50;31.02;;;;;;;;;;4920876;29;20075;-93
2024/03/14 02:59:24;;;;;;;29.20;18.90;;;;;;;;;;4920328;29;20028;-94
2024/03/14 03:01:50;;;;;;;33.45;19.70;;;;;;;;;;4920914;29;20048;-94
2024/03/14 03:04:16;;;;;;;30.35;20.30;;;;;;;;;;4920460;29;20032;-93
2024/03/14 03:06:53;;;;;;;29.05;25.02;;;;;;;;;;4920196;29;20031;-94
2024/03/14 03:09:22;;;;;;;29.67;18.77;;;;;;;;;;4920233;29;20032;-94
2024/03/14 03:11:48;;;;;;;29.55;20.20;;;;;;;;;;4920244;29;20032;-93
2024/03/14 03:14:14;;;;;;;31.20;21.90;;;;;;;;;;4920240;29;20063;-93
2024/03/14 03:16:44;;;;;;;32.60;26.02;;;;;;;;;;4920107;29;20032;-94
2024/03/14 03:19:10;;;;;;;35.28;26.63;;;;;;;;;;4920104;29;20086;-93
2024/03/14 03:21:40;;;;;;;31.23;28.08;;;;;;;;;;4920018;29;20024;-93
2024/03/14 03:24:07;;;;;;;26.17;17.95;;;;;;;;;;4919828;29;20051;-93
2024/03/14 03:26:36;;;;;;;26.70;22.85;;;;;;;;;;4920300;29;20024;-94
2024/03/14 03:29:03;;;;;;;24.40;21.70;;;;;;;;;;4919830;29;20031;-94
2024/03/14 03:31:29;;;;;;;25.95;23.27;;;;;;;;;;4920154;29;20091;-94
2024/03/14 03:33:56;;;;;;;23.13;21.02;;;;;;;;;;4920597;29;20134;-93
2024/03/14 03:36:22;;;;;;;23.85;20.95;;;;;;;;;;4920915;29;20063;-93
2024/03/14 03:38:49;;;;;;;23.58;21.52;;;;;;;;;;4919992;29;20030;-94
2024/03/14 03:41:23;;;;;;;22.00;19.90;;;;;;;;;;4919917;29;20031;-93
2024/03/14 03:43:50;;;;;;;27.85;25.60;;;;;;;;;;4920023;29;20032;-93
2024/03/14 03:46:16;;;;;;;22.08;19.98;;;;;;;;;;4920219;29;20075;-94
2024/03/14 03:48:42;;;;;;;35.17;32.20;;;;;;;;;;4919795;29;20040;-93
2024/03/14 03:51:08;;;;;;;20.73;18.63;;;;;;;;;;4923190;29;20098;-94
2024/03/14 03:53:35;;;;;;;22.25;20.05;;;;;;;;;;4923975;29;20036;-94
2024/03/14 03:56:03;;;;;;;26.13;23.83;;;;;;;;;;4923933;29;20032;-93
2024/03/14 03:58:33;;;;;;;29.58;26.80;;;;;;;;;;4924089;29;20035;-94
2024/03/14 04:01:22;;;;;;;33.17;30.27;;;;;;;;;;4923574;29;20035;-93
2024/03/14 04:03:49;;;;;;;26.58;23.85;;;;;;;;;;4923961;29;20473;-93
2024/03/14 04:06:16;;;;;;;25.48;22.67;;;;;;;;;;4940732;28;20018;-93
2024/03/14 04:08:45;;;;;;;31.60;28.70;;;;;;;;;;4946134;29;20040;-94
2024/03/14 04:11:12;;;;;;;36.63;33.22;;;;;;;;;;4927916;29;20119;-93
2024/03/14 04:13:38;;;;;;;28.02;25.38;;;;;;;;;;4924698;29;20040;-92
2024/03/14 04:16:04;;;;;;;36.78;33.15;;;;;;;;;;4924004;29;20095;-93
2024/03/14 04:18:31;;;;;;;24.90;19.88;;;;;;;;;;4923712;29;20031;-93
2024/03/14 04:24:01;;;;;;;44.33;40.63;;;;;;;;;;4940300;29;20094;-93
2024/03/14 04:26:27;;;;;;;33.90;28.35;;;;;;;;;;4923272;29;20374;-94
2024/03/14 04:28:54;;;;;;;30.10;24.02;;;;;;;;;;4923264;29;20035;-94
2024/03/14 04:31:20;;;;;;;36.00;31.63;;;;;;;;;;4922947;29;20397;-93
2024/03/14 04:33:47;;;;;;;35.50;27.83;;;;;;;;;;4922832;29;20032;-92
2024/03/14 04:36:13;;;;;;;25.13;19.33;;;;;;;;;;4923082;29;20040;-93
2024/03/14 04:38:39;;;;;;;30.33;27.60;;;;;;;;;;4922843;29;20392;-93
2024/03/14 04:41:30;;;;;;;44.90;40.60;;;;;;;;;;4922450;29;20500;-94
2024/03/14 04:43:56;;;;;;;34.72;21.95;;;;;;;;;;4922823;29;20477;-93
2024/03/14 04:46:22;;;;;;;36.25;32.67;;;;;;;;;;4922734;29;20039;-92
2024/03/14 04:48:51;;;;;;;28.40;25.45;;;;;;;;;;4922816;29;20043;-93
2024/03/14 04:51:17;;;;;;;31.67;26.45;;;;;;;;;;4926265;29;20122;-93
2024/03/14 04:53:43;;;;;;;35.25;31.08;;;;;;;;;;4932387;29;20039;-92
2024/03/14 04:56:09;;;;;;;17.85;13.05;;;;;;;;;;4922688;29;20032;-93
2024/03/14 04:58:37;;;;;;;14.45;11.77;;;;;;;;;;4922125;29;20030;-92
2024/03/14 05:01:06;;;;;;;16.17;11.32;;;;;;;;;;4921930;29;20527;-93
2024/03/14 05:03:33;;;;;;;17.13;12.15;;;;;;;;;;4927856;29;20031;-92
2024/03/14 05:05:59;;;;;;;13.30;11.80;;;;;;;;;;4922641;29;20539;-93
2024/03/14 05:08:26;;;;;;;14.02;10.40;;;;;;;;;;4922401;29;20106;-93
2024/03/14 05:10:52;;;;;;;13.68;10.77;;;;;;;;;;4922396;29;20475;-93
2024/03/14 05:13:19;;;;;;;11.18;8.95;;;;;;;;;;4906676;29;20024;-92
2024/03/14 05:15:46;;;;;;;15.60;11.50;;;;;;;;;;4935204;29;20068;-90
2024/03/14 05:18:12;;;;;;;11.50;9.35;;;;;;;;;;4923270;29;20042;-92
2024/03/14 05:20:50;;;;;;;11.35;9.60;;;;;;;;;;4922133;29;20032;-92
2024/03/14 05:23:21;;;;;;;29.45;14.75;;;;;;;;;;4922082;29;20028;-94
2024/03/14 05:25:52;;;;;;;27.15;24.30;;;;;;;;;;4922373;29;20038;-94
2024/03/14 05:28:18;;;;;;;22.05;18.73;;;;;;;;;;4922679;29;20027;-96
2024/03/14 05:30:45;;;;;;;26.67;21.23;;;;;;;;;;4921997;29;20068;-95
2024/03/14 05:33:11;;;;;;;29.48;25.67;;;;;;;;;;4922320;29;20035;-95
2024/03/14 05:35:38;;;;;;;27.50;19.42;;;;;;;;;;4939178;29;20493;-96
2024/03/14 05:38:04;;;;;;;24.73;16.15;;;;;;;;;;4939418;29;20028;-95
2024/03/14 05:40:32;;;;;;;25.95;20.35;;;;;;;;;;4923005;29;20043;-93
2024/03/14 05:42:58;;;;;;;50.80;36.90;;;;;;;;;;4922134;29;20024;-92
2024/03/14 05:45:24;;;;;;;37.38;27.77;;;;;;;;;;4921681;29;20137;-93
2024/03/14 05:47:52;;;;;;;34.80;30.88;;;;;;;;;;4922136;29;20035;-93
2024/03/14 05:50:18;;;;;;;17.98;13.57;;;;;;;;;;4926171;29;20142;-92
2024/03/14 05:52:47;;;;;;;27.70;20.95;;;;;;;;;;4942963;29;20095;-91
2024/03/14 05:55:13;;;;;;;42.95;38.55;;;;;;;;;;4942196;29;20030;-95
2024/03/14 05:57:40;;;;;;;40.30;28.83;;;;;;;;;;4923328;29;20028;-91
2024/03/14 06:00:06;;;;;;;44.88;27.92;;;;;;;;;;4921587;29;20225;-93
2024/03/14 06:02:32;;;;;;;31.15;27.85;;;;;;;;;;4917527;29;20027;-91
2024/03/14 06:05:00;;;;;;;17.58;13.00;;;;;;;;;;4932154;29;20039;-91
2024/03/14 06:07:27;;;;;;;26.02;23.48;;;;;;;;;;4942559;29;20011;-89
2024/03/14 06:09:53;;;;;;;16.30;10.55;;;;;;;;;;4922263;29;20035;-91
2024/03/14 06:12:19;;;;;;;13.70;9.77;;;;;;;;;;4921359;29;20047;-91
2024/03/14 06:14:47;;;;;;;22.40;20.20;;;;;;;;;;4921628;29;20042;-93
2024/03/14 06:17:28;;;;;;;13.88;12.45;;;;;;;;;;4922399;29;20042;-94
2024/03/14 06:19:57;;;;;;;16.05;12.07;;;;;;;;;;4921461;29;20039;-92
2024/03/14 06:22:23;;;;;;;16.55;13.77;;;;;;;;;;4921331;29;20416;-93
2024/03/14 06:24:49;;;;;;;16.45;11.35;;;;;;;;;;4907985;29;20048;-90
2024/03/14 06:27:15;;;;;;;15.32;13.75;;;;;;;;;;4902105;29;20043;-93
2024/03/14 06:29:42;;;;;;;17.50;15.82;;;;;;;;;;4902320;29;20028;-93
2024/03/14 06:32:09;;;;;;;13.88;11.75;;;;;;;;;;4903052;29;20064;-94
2024/03/14 06:34:36;;;;;;;14.40;13.00;;;;;;;;;;4902606;29;20063;-94
2024/03/14 06:37:03;;;;;;;16.38;13.52;;;;;;;;;;4902120;29;20032;-90
2024/03/14 06:39:29;;;;;;;17.35;15.75;;;;;;;;;;4902196;29;20470;-94
2024/03/14 06:41:57;;;;;;;14.75;13.25;;;;;;;;;;4902066;29;20025;-93
2024/03/14 06:44:23;;;;;;;12.02;10.70;;;;;;;;;;4907632;29;20111;-91
2024/03/14 06:46:49;;;;;;;15.32;13.82;;;;;;;;;;4902556;29;20025;-93
2024/03/14 06:49:16;;;;;;;13.27;11.68;;;;;;;;;;4901971;29;20032;-93
2024/03/14 06:51:42;;;;;;;14.48;12.35;;;;;;;;;;4901776;29;20150;-92
2024/03/14 06:54:09;;;;;;;13.55;12.25;;;;;;;;;;4901540;29;20047;-93
2024/03/14 06:56:38;;;;;;;15.65;13.93;;;;;;;;;;4901842;29;20071;-92
2024/03/14 06:59:07;;;;;;;15.75;14.13;;;;;;;;;;4901505;29;20111;-92
2024/03/14 07:01:34;;;;;;;19.05;17.15;;;;;;;;;;4901597;29;20035;-92
2024/03/14 07:04:01;;;;;;;18.13;16.30;;;;;;;;;;4902237;29;20068;-91
2024/03/14 07:06:28;;;;;;;21.13;19.10;;;;;;;;;;4903951;29;20032;-91
2024/03/14 07:08:58;;;;;;;22.05;19.85;;;;;;;;;;4902585;29;20036;-93
2024/03/14 07:11:25;;;;;;;23.20;20.85;;;;;;;;;;4918531;29;20433;-91
2024/03/14 07:13:59;;;;;;;22.55;20.45;;;;;;;;;;4903318;29;20044;-92
2024/03/14 07:16:26;;;;;;;21.27;19.25;;;;;;;;;;4902950;29;20497;-92
2024/03/14 07:18:55;;;;;;;25.55;23.40;;;;;;;;;;4903626;29;20055;-94
2024/03/14 07:21:24;;;;;;;22.52;20.33;;;;;;;;;;4903231;29;20087;-92
2024/03/14 07:23:50;;;;;;;19.67;17.70;;;;;;;;;;4902346;29;20493;-93
2024/03/14 07:26:22;;;;;;;27.70;25.30;;;;;;;;;;4903517;29;20032;-90
2024/03/14 07:28:57;;;;;;;23.13;20.88;;;;;;;;;;4903983;29;20031;-94
2024/03/14 07:31:23;;;;;;;31.25;28.77;;;;;;;;;;4901528;29;20035;-93
2024/03/14 07:33:49;;;;;;;31.23;28.80;;;;;;;;;;4901959;29;20047;-91
2024/03/14 07:36:15;;;;;;;32.80;30.20;;;;;;;;;;4915591;29;20024;-92
2024/03/14 07:38:47;;;;;;;31.33;28.67;;;;;;;;;;4923464;29;20032;-91
2024/03/14 07:41:20;;;;;;;32.92;30.23;;;;;;;;;;4906858;29;20024;-91
2024/03/14 07:43:53;;;;;;;32.92;30.20;;;;;;;;;;4903490;29;20040;-93
2024/03/14 07:46:20;;;;;;;33.08;30.58;;;;;;;;;;4901465;29;20024;-94
2024/03/14 07:48:51;;;;;;;31.60;29.20;;;;;;;;;;4901233;29;20123;-93
2024/03/14 07:51:17;;;;;;;31.95;29.45;;;;;;;;;;4902969;29;20028;-93
2024/03/14 07:53:47;;;;;;;29.65;27.23;;;;;;;;;;4901043;29;20046;-93
2024/03/14 07:56:14;;;;;;;28.00;25.70;;;;;;;;;;4901336;29;20028;-92
2024/03/14 07:58:46;;;;;;;27.30;25.10;;;;;;;;;;4903753;29;20036;-94
2024/03/14 08:01:33;;;;;;;28.08;25.67;;;;;;;;;;4916213;29;20036;-92
2024/03/14 08:04:38;;;;;;;31.23;28.92;;;;;;;;;;4907337;29;20111;-96
2024/03/14 08:07:10;;;;;;;33.35;30.88;;;;;;;;;;4896380;29;20036;-95
2024/03/14 08:09:40;;;;;;;32.88;30.13;;;;;;;;;;4903650;29;20114;-93
2024/03/14 08:12:06;;;;;;;29.15;26.88;;;;;;;;;;4903350;29;20035;-92
2024/03/14 08:14:35;;;;;;;28.13;25.70;;;;;;;;;;4903870;29;20099;-94
2024/03/14 08:17:06;;;;;;;27.23;25.00;;;;;;;;;;4901395;29;20028;-93
2024/03/14 08:19:33;;;;;;;29.27;26.83;;;;;;;;;;4901147;29;20084;-94
2024/03/14 08:21:59;;;;;;;30.23;27.27;;;;;;;;;;4904705;29;20445;-92
2024/03/14 08:24:28;;;;;;;25.67;23.33;;;;;;;;;;4900708;29;20052;-93
2024/03/14 08:26:54;;;;;;;27.35;24.92;;;;;;;;;;4901238;29;20032;-92
2024/03/14 08:29:25;;;;;;;29.52;27.08;;;;;;;;;;4907234;29;20119;-94
2024/03/14 08:31:51;;;;;;;22.38;20.08;;;;;;;;;;4918574;29;20062;-92
2024/03/14 08:34:18;;;;;;;21.52;18.95;;;;;;;;;;4918495;29;20032;-96
2024/03/14 08:36:44;;;;;;;17.38;15.70;;;;;;;;;;4920743;29;20059;-93
2024/03/14 08:39:17;;;;;;;16.75;15.00;;;;;;;;;;4918033;29;20500;-92
2024/03/14 08:41:43;;;;;;;16.83;15.05;;;;;;;;;;4903470;29;20123;-90
2024/03/14 08:44:11;;;;;;;16.42;14.82;;;;;;;;;;4903143;29;20035;-92
2024/03/14 08:46:37;;;;;;;15.73;14.13;;;;;;;;;;4902715;29;20024;-91
2024/03/14 08:49:03;;;;;;;14.30;12.90;;;;;;;;;;4902799;29;20032;-92
2024/03/14 08:51:31;;;;;;;15.20;13.90;;;;;;;;;;4902723;29;20027;-93
2024/03/14 08:54:28;;;;;;;13.07;11.60;;;;;;;;;;4902434;29;20036;-92
2024/03/14 08:56:58;;;;;;;14.40;12.90;;;;;;;;;;4902832;29;20020;-92
2024/03/14 08:59:25;;;;;;;14.50;12.90;;;;;;;;;;4902974;29;20028;-91
2024/03/14 09:01:51;;;;;;;16.95;15.18;;;;;;;;;;4902980;29;20036;-93
2024/03/14 09:04:19;;;;;;;18.00;16.17;;;;;;;;;;4902764;29;20035;-92
2024/03/14 09:06:45;;;;;;;19.35;17.42;;;;;;;;;;4902678;29;20595;-93
2024/03/14 09:09:23;;;;;;;21.40;19.30;;;;;;;;;;4903277;29;20028;-93
2024/03/14 09:11:53;;;;;;;19.48;17.58;;;;;;;;;;4916856;29;20039;-91
2024/03/14 09:14:20;;;;;;;22.20;20.00;;;;;;;;;;4923164;29;20074;-89
2024/03/14 09:16:47;;;;;;;25.08;22.85;;;;;;;;;;4903298;29;20517;-92
2024/03/14 09:19:13;;;;;;;28.00;25.70;;;;;;;;;;4908420;29;20039;-92
2024/03/14 09:21:40;;;;;;;28.15;25.35;;;;;;;;;;4926015;29;20032;-92
2024/03/14 09:24:07;;;;;;;26.08;23.58;;;;;;;;;;4893804;29;627425;-91
2024/03/14 09:26:37;;;;;;;25.63;23.30;;;;;;;;;;4903370;29;20500;-92
2024/03/14 09:29:05;;;;;;;25.88;23.67;;;;;;;;;;4903605;29;20066;-90
2024/03/14 09:31:31;;;;;;;24.80;22.50;;;;;;;;;;4903442;29;20405;-91
2024/03/14 09:33:57;;;;;;;24.42;21.73;;;;;;;;;;4903589;29;20042;-90
2024/03/14 09:36:26;;;;;;;23.27;21.10;;;;;;;;;;4903322;29;20474;-91
2024/03/14 09:38:53;;;;;;;22.05;19.85;;;;;;;;;;4903168;29;20445;-90
2024/03/14 09:41:19;;;;;;;21.52;19.42;;;;;;;;;;4902997;29;20032;-90
2024/03/14 09:43:46;;;;;;;20.77;18.67;;;;;;;;;;4905709;29;20024;-91
2024/03/14 09:46:17;;;;;;;20.40;18.33;;;;;;;;;;4903468;29;20059;-91
2024/03/14 09:48:45;;;;;;;20.08;17.98;;;;;;;;;;4902225;29;20028;-93
2024/03/14 09:51:13;;;;;;;18.65;16.63;;;;;;;;;;4902965;29;20083;-94
2024/03/14 09:53:40;;;;;;;21.40;19.30;;;;;;;;;;4908248;29;20032;-89
2024/03/14 09:56:06;;;;;;;19.70;17.73;;;;;;;;;;4906483;29;20123;-91
2024/03/14 09:58:35;;;;;;;18.05;16.38;;;;;;;;;;4902601;29;20035;-91
2024/03/14 10:01:03;;;;;;;18.63;16.73;;;;;;;;;;4902600;29;20043;-93
2024/03/14 10:03:31;;;;;;;19.95;17.60;;;;;;;;;;4903809;29;20548;-90
2024/03/14 10:05:57;;;;;;;18.08;16.38;;;;;;;;;;4903392;29;20087;-90
2024/03/14 10:08:28;;;;;;;19.17;17.38;;;;;;;;;;4902650;29;20024;-94
2024/03/14 10:10:54;;;;;;;18.40;16.70;;;;;;;;;;4912166;29;20020;-91
2024/03/14 10:19:17;;;;;;;20.10;18.13;;;;;;;;;;4799739;23;20239;31
2024/03/14 10:21:45;;;;;;;19.55;17.75;;;;;;;;;;4897919;29;20293;-94
2024/03/14 10:24:16;;;;;;;21.83;19.73;;;;;;;;;;4899231;29;20028;-95
2024/03/14 10:26:44;;;;;;;24.65;22.25;;;;;;;;;;4899313;29;20470;-91
2024/03/14 10:29:13;;;;;;;23.88;21.45;;;;;;;;;;4898912;29;20040;-94
2024/03/14 10:31:43;;;;;;;27.30;24.70;;;;;;;;;;4899149;29;20036;-90
2024/03/14 10:34:09;;;;;;;35.17;32.10;;;;;;;;;;4883605;29;20037;-94
2024/03/14 10:36:41;;;;;;;35.10;32.22;;;;;;;;;;4898756;29;20108;-93
2024/03/14 10:39:16;;;;;;;34.38;31.30;;;;;;;;;;4898945;29;20035;-94
2024/03/14 10:41:43;;;;;;;39.65;36.47;;;;;;;;;;4898995;29;20021;-92
2024/03/14 10:44:14;;;;;;;37.22;34.10;;;;;;;;;;4899027;29;20124;-92
2024/03/14 10:46:42;;;;;;;37.10;33.80;;;;;;;;;;4899079;29;20029;-94
2024/03/14 10:49:11;;;;;;;35.67;32.65;;;;;;;;;;4899073;29;20115;-92
2024/03/14 10:51:38;;;;;;;37.25;34.15;;;;;;;;;;4898647;29;20485;-91
2024/03/14 10:54:07;;;;;;;42.65;39.05;;;;;;;;;;4898535;29;20043;-93
2024/03/14 10:56:33;;;;;;;41.63;38.03;;;;;;;;;;4898507;29;20188;-91
2024/03/14 10:58:59;;;;;;;44.60;40.95;;;;;;;;;;4898167;29;20025;-91
2024/03/14 11:01:26;;;;;;;43.97;40.22;;;;;;;;;;4900777;29;20080;-90
2024/03/14 11:03:53;;;;;;;44.45;40.85;;;;;;;;;;4921207;29;20445;-92
2024/03/14 11:06:20;;;;;;;40.60;37.28;;;;;;;;;;4928008;29;20032;-92
2024/03/14 11:08:48;;;;;;;43.55;40.17;;;;;;;;;;4914461;29;20067;-93
2024/03/14 11:11:17;;;;;;;44.65;41.13;;;;;;;;;;4913811;29;20060;-93
2024/03/14 11:13:46;;;;;;;31.90;29.05;;;;;;;;;;4914045;29;20076;-93
2024/03/14 11:16:13;;;;;;;38.67;35.40;;;;;;;;;;4914472;29;20028;-93
2024/03/14 11:18:40;;;;;;;51.78;47.88;;;;;;;;;;4914103;29;20029;-91
2024/03/14 11:21:07;;;;;;;43.00;39.45;;;;;;;;;;4927749;29;20052;-93
2024/03/14 11:23:35;;;;;;;38.95;35.67;;;;;;;;;;4917359;29;20028;-92
2024/03/14 11:26:05;;;;;;;37.08;33.75;;;;;;;;;;4917437;29;20028;-93
2024/03/14 11:28:32;;;;;;;39.17;35.70;;;;;;;;;;4916853;29;20122;-91
2024/03/14 11:31:01;;;;;;;40.38;36.70;;;;;;;;;;4932906;29;20024;-92
2024/03/14 11:33:28;;;;;;;53.30;48.97;;;;;;;;;;4898064;29;20036;-91
2024/03/14 11:35:58;;;;;;;54.97;50.92;;;;;;;;;;4897995;29;20033;-93
2024/03/14 11:38:24;;;;;;;51.40;47.15;;;;;;;;;;4900239;29;20024;-93
2024/03/14 11:40:53;;;;;;;64.47;59.63;;;;;;;;;;4916812;29;20091;-94
2024/03/14 11:43:21;;;;;;;75.38;70.10;;;;;;;;;;4900960;29;20020;-93
2024/03/14 11:45:50;;;;;;;45.13;41.28;;;;;;;;;;4900711;29;20111;-92
2024/03/14 11:48:19;;;;;;;56.72;52.38;;;;;;;;;;4917470;29;20036;-94
2024/03/14 11:50:47;;;;;;;38.22;34.80;;;;;;;;;;4916941;29;20039;-94
2024/03/14 11:53:14;;;;;;;42.80;39.20;;;;;;;;;;4901686;29;20032;-94
2024/03/14 11:55:43;;;;;;;40.33;36.83;;;;;;;;;;4917148;29;20099;-93
2024/03/14 11:58:14;;;;;;;43.92;40.25;;;;;;;;;;4923650;29;20024;-93
2024/03/14 12:00:40;;;;;;;33.67;30.70;;;;;;;;;;4917288;29;20445;-93
2024/03/14 12:03:07;;;;;;;35.67;32.65;;;;;;;;;;4917849;29;20020;-94
2024/03/14 12:05:38;;;;;;;39.50;35.97;;;;;;;;;;4917694;29;20028;-90
2024/03/14 12:08:06;;;;;;;34.85;31.67;;;;;;;;;;4904782;29;20081;-90
2024/03/14 12:10:32;;;;;;;39.20;35.83;;;;;;;;;;4922236;29;20061;-90
2024/03/14 12:12:59;;;;;;;43.55;39.88;;;;;;;;;;4928510;29;20052;-93
2024/03/14 12:15:26;;;;;;;43.13;39.42;;;;;;;;;;4920630;29;20401;-90
2024/03/14 12:17:56;;;;;;;35.85;32.30;;;;;;;;;;4936347;29;20067;-93
2024/03/14 12:20:24;;;;;;;43.53;39.60;;;;;;;;;;4920244;29;20048;-91
2024/03/14 12:22:56;;;;;;;58.30;53.70;;;;;;;;;;4920299;29;20437;-93
2024/03/14 12:25:22;;;;;;;63.45;58.58;;;;;;;;;;4923196;29;20055;-91
2024/03/14 12:27:49;;;;;;;49.47;45.30;;;;;;;;;;4935846;29;20473;-94
2024/03/14 12:30:16;;;;;;;44.83;40.83;;;;;;;;;;4919941;29;20032;-91
2024/03/14 12:32:43;;;;;;;53.20;48.85;;;;;;;;;;4919926;29;20474;-95
2024/03/14 12:35:11;;;;;;;54.38;49.83;;;;;;;;;;4919869;29;20036;-93
2024/03/14 12:37:38;;;;;;;62.85;57.97;;;;;;;;;;4919790;29;20024;-92
2024/03/14 12:40:11;;;;;;;63.05;58.38;;;;;;;;;;4920796;29;20047;-93
2024/03/14 12:42:37;;;;;;;;;;;;;;;;;;4907193;29;20032;-92
2024/03/14 12:45:15;;;;;;;54.75;50.30;;;;;;;;;;4938680;29;19906;-93
2024/03/14 12:47:47;;;;;;;56.05;51.40;;;;;;;;;;4923702;29;20039;-95
2024/03/14 12:50:32;;;;;;;50.13;45.83;;;;;;;;;;4888247;29;20044;-96
2024/03/14 12:53:05;;;;;;;47.85;44.20;;;;;;;;;;4894063;29;20028;-95
2024/03/14 12:55:33;;;;;;;40.63;36.90;;;;;;;;;;4924985;29;20051;-93
2024/03/14 12:58:02;;;;;;;46.72;42.90;;;;;;;;;;4920607;29;20056;-95
2024/03/14 13:00:31;;;;;;;42.70;39.00;;;;;;;;;;4933167;29;20383;-96
2024/03/14 13:03:00;;;;;;;41.08;37.25;;;;;;;;;;4939260;29;20067;-94
2024/03/14 13:05:46;;;;;;;35.53;32.17;;;;;;;;;;4911718;29;20036;-96
2024/03/14 13:08:15;;;;;;;35.83;32.40;;;;;;;;;;4919612;29;20032;-93
2024/03/14 13:10:45;;;;;;;50.38;45.92;;;;;;;;;;4924068;29;20020;-96
2024/03/14 13:13:17;;;;;;;41.65;37.88;;;;;;;;;;4919652;29;20040;-95
2024/03/14 13:15:46;;;;;;;65.53;60.63;;;;;;;;;;4903739;29;20096;-93
2024/03/14 13:18:27;;;;;;;51.88;47.60;;;;;;;;;;5146868;23;20058;-96
2024/03/14 13:21:02;;;;;;;49.25;45.28;;;;;;;;;;4939441;29;20058;-92
2024/03/14 13:23:29;;;;;;;63.58;58.78;;;;;;;;;;4938125;29;20028;-91
2024/03/14 13:25:59;;;;;;;75.18;69.78;;;;;;;;;;4939034;29;20492;-93
2024/03/14 13:28:25;;;;;;;67.93;63.13;;;;;;;;;;4939514;29;20167;-90
2024/03/14 13:30:52;;;;;;;81.72;76.03;;;;;;;;;;4938293;29;20031;-94
2024/03/14 13:36:40;;;;;;;74.57;69.13;;;;;;;;;;4939292;29;20050;-92
2024/03/14 13:39:12;;;;;;;68.65;63.45;;;;;;;;;;4924615;29;20039;-91
2024/03/14 13:41:48;;;;;;;52.55;48.28;;;;;;;;;;4923294;29;20445;-91
2024/03/14 13:44:15;;;;;;;38.75;35.38;;;;;;;;;;4922265;29;20055;-93
2024/03/14 13:46:44;;;;;;;39.70;36.40;;;;;;;;;;4922028;29;20040;-94
2024/03/14 13:49:11;;;;;;;44.10;40.20;;;;;;;;;;4921870;29;20037;-90
2024/03/14 13:51:37;;;;;;;44.38;40.70;;;;;;;;;;4921628;29;20035;-93
2024/03/14 13:54:04;;;;;;;43.25;39.58;;;;;;;;;;4921781;29;20047;-94
2024/03/14 13:56:30;;;;;;;35.88;32.60;;;;;;;;;;4921590;29;20087;-93
2024/03/14 13:59:08;;;;;;;42.90;39.30;;;;;;;;;;4921898;29;20028;-95
2024/03/14 14:01:47;;;;;;;39.67;36.17;;;;;;;;;;4946493;29;20055;-93
2024/03/14 14:04:13;;;;;;;50.70;46.42;;;;;;;;;;4925933;29;20031;-94
2024/03/14 14:06:47;;;;;;;43.53;40.00;;;;;;;;;;4924510;29;20028;-94
2024/03/14 14:09:15;;;;;;;40.17;36.53;;;;;;;;;;4925022;29;20024;-93
2024/03/14 14:11:43;;;;;;;38.85;35.42;;;;;;;;;;4921745;29;20488;-93
2024/03/14 14:14:11;;;;;;;37.90;34.50;;;;;;;;;;4923996;29;20031;-94
2024/03/14 14:16:38;;;;;;;58.15;53.55;;;;;;;;;;4921617;29;20035;-94
2024/03/14 14:19:06;;;;;;;49.00;45.05;;;;;;;;;;4921669;29;20482;-93
2024/03/14 14:21:35;;;;;;;78.80;73.38;;;;;;;;;;4921338;29;20024;-91
2024/03/14 14:24:01;;;;;;;63.45;58.70;;;;;;;;;;4921341;29;20412;-92
2024/03/14 14:26:27;;;;;;;60.65;56.00;;;;;;;;;;4928538;29;20011;-92
2024/03/14 14:28:54;;;;;;;62.70;58.25;;;;;;;;;;4944107;29;20056;-91
2024/03/14 14:31:21;;;;;;;53.20;49.10;;;;;;;;;;4932290;29;20032;-93
2024/03/14 14:33:47;;;;;;;70.60;65.63;;;;;;;;;;4920545;29;20119;-91
2024/03/14 14:36:13;;;;;;;59.22;54.55;;;;;;;;;;4938666;29;20052;-90